createdAt,value
2022-10-09T00:02:42.689Z,1.70
2022-10-09T00:07:44.253Z,1.67
2022-10-09T00:12:46.188Z,1.80
2022-10-09T00:17:47.964Z,1.85
2022-10-09T00:22:49.851Z,1.75
2022-10-09T00:27:51.560Z,1.50
2022-10-09T00:32:53.927Z,1.67
2022-10-09T00:37:55.606Z,1.70
2022-10-09T00:42:58.170Z,1.77
2022-10-09T00:48:10.293Z,2.03
2022-10-09T00:53:16.083Z,2.05
2022-10-09T00:58:18.496Z,1.58
2022-10-09T01:03:20.118Z,1.40
2022-10-09T01:08:55.664Z,1.92
2022-10-09T01:14:19.616Z,1.50
2022-10-09T01:19:32.905Z,1.52
2022-10-09T01:25:04.928Z,1.65
2022-10-09T01:30:10.622Z,1.50
2022-10-09T01:35:13.248Z,1.83
2022-10-09T01:40:17.228Z,1.70
2022-10-09T01:45:18.775Z,1.65
2022-10-09T01:50:28.049Z,2.58
2022-10-09T01:55:38.381Z,1.67
2022-10-09T02:00:45.577Z,2.33
2022-10-09T02:10:56.501Z,2.53
2022-10-09T02:21:38.917Z,2.13
2022-10-09T02:26:41.378Z,2.53
2022-10-09T02:31:43.920Z,2.30
2022-10-09T02:36:46.426Z,2.75
2022-10-09T02:41:47.933Z,3.47
2022-10-09T02:46:49.625Z,3.72
2022-10-09T02:51:51.342Z,3.13
2022-10-09T02:56:52.897Z,3.80
2022-10-09T03:01:54.504Z,3.45
2022-10-09T03:06:56.135Z,3.45
2022-10-09T03:11:57.721Z,3.92
2022-10-09T03:16:59.298Z,3.40
2022-10-09T03:22:00.872Z,4.70
2022-10-09T03:27:02.433Z,3.78
2022-10-09T03:32:04.077Z,4.55
2022-10-09T03:37:05.908Z,4.13
2022-10-09T03:42:07.521Z,4.05
2022-10-09T03:47:09.177Z,4.10
2022-10-09T03:52:10.861Z,3.10
2022-10-09T03:57:12.457Z,3.60
2022-10-09T04:02:13.984Z,3.80
2022-10-09T04:07:15.529Z,3.72
2022-10-09T04:12:17.396Z,4.07
2022-10-09T04:17:18.939Z,3.58
2022-10-09T04:22:20.513Z,4.00
2022-10-09T04:27:22.060Z,3.80
2022-10-09T04:32:23.590Z,4.90
2022-10-09T04:37:25.145Z,3.42
2022-10-09T04:42:26.698Z,3.60
2022-10-09T04:47:28.219Z,4.20
2022-10-09T04:52:29.885Z,3.72
2022-10-09T04:57:31.379Z,3.13
2022-10-09T05:02:33.000Z,3.55
2022-10-09T05:07:34.653Z,3.35
2022-10-09T05:12:36.221Z,3.92
2022-10-09T05:17:37.808Z,3.75
2022-10-09T05:22:39.365Z,3.22
2022-10-09T05:27:41.045Z,3.42
2022-10-09T05:32:42.599Z,3.10
2022-10-09T05:37:45.570Z,3.90
2022-10-09T05:42:49.821Z,3.30
2022-10-09T05:47:51.609Z,3.42
2022-10-09T05:52:53.144Z,3.58
2022-10-09T05:57:54.725Z,4.32
2022-10-09T06:02:56.477Z,3.97
2022-10-09T06:07:58.216Z,3.75
2022-10-09T06:12:59.799Z,3.90
2022-10-09T06:18:01.392Z,3.60
2022-10-09T06:23:03.000Z,3.38
2022-10-09T06:28:04.642Z,3.50
2022-10-09T06:33:06.271Z,5.18
2022-10-09T06:38:08.190Z,4.43
2022-10-09T06:43:09.734Z,4.90
2022-10-09T06:48:11.425Z,4.45
2022-10-09T06:53:13.173Z,4.63
2022-10-09T06:58:14.771Z,4.63
2022-10-09T07:03:16.381Z,4.88
2022-10-09T07:08:18.049Z,5.22
2022-10-09T07:13:19.697Z,3.58
2022-10-09T07:18:21.305Z,3.72
2022-10-09T07:23:22.943Z,3.28
2022-10-09T07:28:26.348Z,3.83
2022-10-09T07:33:27.944Z,3.30
2022-10-09T07:38:29.853Z,3.00
2022-10-09T07:43:31.637Z,3.17
2022-10-09T07:48:35.258Z,3.25
2022-10-09T07:53:37.851Z,3.88
2022-10-09T07:58:39.443Z,3.15
2022-10-09T08:03:41.185Z,3.03
2022-10-09T08:08:42.850Z,3.17
2022-10-09T08:13:45.598Z,2.60
2022-10-09T08:18:48.098Z,2.90
2022-10-09T08:23:54.148Z,2.72
2022-10-09T08:28:59.144Z,2.92
2022-10-09T08:34:03.033Z,2.78
2022-10-09T08:39:04.763Z,2.85
2022-10-09T08:44:29.309Z,3.17
2022-10-09T08:49:52.259Z,2.60
2022-10-09T08:54:57.297Z,3.40
2022-10-09T08:59:59.063Z,2.33
2022-10-09T09:05:12.685Z,1.98
2022-10-09T09:10:23.142Z,1.70
2022-10-09T09:15:49.238Z,1.77
2022-10-09T09:21:01.055Z,1.90
2022-10-09T09:26:03.511Z,1.85
2022-10-09T09:31:26.049Z,1.83
2022-10-09T09:36:39.091Z,1.63
2022-10-09T09:41:42.917Z,1.90
2022-10-09T09:46:47.684Z,2.00
2022-10-09T09:51:50.865Z,2.00
2022-10-09T09:57:15.819Z,1.65
2022-10-09T10:02:21.280Z,1.40
2022-10-09T10:07:37.633Z,1.67
2022-10-09T10:12:52.695Z,1.40
2022-10-09T10:17:59.045Z,1.40
2022-10-09T10:23:00.997Z,1.25
2022-10-09T10:28:17.857Z,1.17
2022-10-09T10:33:25.093Z,1.27
2022-10-09T10:38:39.390Z,1.10
2022-10-09T10:43:45.005Z,1.20
2022-10-09T10:48:48.145Z,0.98
2022-10-09T10:54:33.487Z,1.30
2022-10-09T11:00:03.845Z,1.30
2022-10-09T11:05:25.480Z,0.95
2022-10-09T11:10:35.958Z,1.17
2022-10-09T11:16:07.155Z,1.02
2022-10-09T11:21:14.155Z,0.80
2022-10-09T11:26:43.330Z,1.05
2022-10-09T11:31:53.434Z,0.82
2022-10-09T11:36:56.805Z,0.80
2022-10-09T11:41:59.970Z,0.70
2022-10-09T11:47:23.700Z,0.57
2022-10-09T11:53:02.485Z,0.98
2022-10-09T11:58:24.356Z,0.70
2022-10-09T12:03:33.625Z,0.88
2022-10-09T12:08:36.196Z,0.95
2022-10-09T12:13:38.740Z,0.80
2022-10-09T12:18:46.060Z,0.88
2022-10-09T12:23:49.319Z,1.08
2022-10-09T12:28:55.690Z,0.70
2022-10-09T12:34:03.618Z,0.82
2022-10-09T12:39:19.338Z,0.70
2022-10-09T12:44:32.433Z,0.83
2022-10-09T12:49:34.282Z,1.08
2022-10-09T12:54:42.977Z,0.90
2022-10-09T12:59:46.275Z,0.98
2022-10-09T13:05:00.868Z,0.82
2022-10-09T13:10:18.837Z,0.90
2022-10-09T13:15:38.728Z,0.80
2022-10-09T13:20:40.554Z,0.70
2022-10-09T13:25:44.177Z,1.05
2022-10-09T13:30:45.877Z,1.00
2022-10-09T13:35:47.766Z,0.98
2022-10-09T13:40:49.640Z,0.90
2022-10-09T13:45:51.226Z,1.15
2022-10-09T13:50:52.820Z,0.90
2022-10-09T13:55:59.958Z,0.85
2022-10-09T14:01:16.437Z,0.80
2022-10-09T14:06:18.759Z,0.90
2022-10-09T14:11:20.402Z,0.70
2022-10-09T14:16:22.810Z,0.80
2022-10-09T14:21:24.443Z,0.73
2022-10-09T14:26:27.440Z,1.10
2022-10-09T14:31:29.980Z,0.73
2022-10-09T14:36:31.788Z,1.05
2022-10-09T14:41:37.607Z,0.73
2022-10-09T14:46:39.625Z,0.80
2022-10-09T14:51:41.635Z,0.80
2022-10-09T14:56:43.355Z,1.10
2022-10-09T15:01:44.960Z,0.80
2022-10-09T15:06:46.489Z,1.10
2022-10-09T15:11:48.028Z,1.20
2022-10-09T15:16:49.611Z,1.10
2022-10-09T15:21:51.376Z,1.10
2022-10-09T15:26:52.971Z,1.08
2022-10-09T15:31:54.579Z,1.10
2022-10-09T15:36:56.323Z,1.08
2022-10-09T15:41:57.877Z,1.10
2022-10-09T15:46:59.428Z,1.10
2022-10-09T15:52:01.179Z,0.85
2022-10-09T15:57:02.887Z,1.00
2022-10-09T16:02:04.613Z,1.10
2022-10-09T16:07:13.193Z,1.00
2022-10-09T16:12:14.859Z,0.98
2022-10-09T16:17:16.408Z,0.98
2022-10-09T16:22:17.970Z,1.30
2022-10-09T16:27:19.537Z,1.92
2022-10-09T16:32:21.443Z,2.00
2022-10-09T16:37:23.146Z,3.28
2022-10-09T16:42:24.707Z,2.42
2022-10-09T16:47:26.250Z,2.17
2022-10-09T16:52:27.894Z,3.25
2022-10-09T16:57:29.494Z,3.97
2022-10-09T17:02:31.328Z,3.13
2022-10-09T17:07:33.794Z,2.72
2022-10-09T17:12:37.115Z,2.70
2022-10-09T17:17:38.910Z,2.45
2022-10-09T17:22:40.750Z,2.72
2022-10-09T17:27:42.727Z,4.20
2022-10-09T17:32:44.395Z,4.18
2022-10-09T17:37:47.158Z,2.85
2022-10-09T17:42:49.163Z,2.45
2022-10-09T17:47:51.689Z,3.42
2022-10-09T17:52:53.640Z,3.30
2022-10-09T17:57:55.976Z,3.10
2022-10-09T18:02:58.302Z,3.67
2022-10-09T18:08:00.116Z,3.90
2022-10-09T18:13:06.013Z,3.80
2022-10-09T18:18:09.059Z,3.47
2022-10-09T18:23:10.738Z,4.55
2022-10-09T18:28:12.745Z,3.08
2022-10-09T18:33:14.827Z,3.28
2022-10-09T18:38:17.031Z,4.45
2022-10-09T18:43:18.582Z,4.10
2022-10-09T18:48:20.991Z,3.88
2022-10-09T18:53:22.789Z,3.78
2022-10-09T18:58:24.466Z,3.72
2022-10-09T19:03:26.061Z,4.07
2022-10-09T19:08:27.563Z,4.78
2022-10-09T19:13:29.568Z,4.57
2022-10-09T19:18:31.790Z,4.72
2022-10-09T19:23:33.509Z,4.57
2022-10-09T19:28:37.915Z,4.43
2022-10-09T19:33:41.209Z,5.03
2022-10-09T19:38:43.248Z,4.40
2022-10-09T19:43:45.174Z,4.38
2022-10-09T19:48:47.147Z,3.72
2022-10-09T19:53:49.946Z,3.78
2022-10-09T19:58:52.356Z,3.63
2022-10-09T20:04:00.053Z,4.40
2022-10-09T20:09:01.929Z,2.90
2022-10-09T20:14:04.165Z,2.67
2022-10-09T20:19:06.082Z,2.88
2022-10-09T20:24:08.489Z,2.78
2022-10-09T20:29:10.217Z,2.95
2022-10-09T20:34:11.752Z,2.70
2022-10-09T20:39:15.289Z,2.53
2022-10-09T20:44:16.945Z,2.60
2022-10-09T20:49:18.610Z,2.67
2022-10-09T20:54:21.568Z,3.03
2022-10-09T20:59:23.242Z,2.08
2022-10-09T21:04:24.932Z,2.63
2022-10-09T21:09:30.882Z,2.70
2022-10-09T21:14:34.630Z,2.42
2022-10-09T21:19:36.273Z,2.10
2022-10-09T21:24:37.800Z,2.88
2022-10-09T21:29:39.428Z,1.80
2022-10-09T21:34:41.020Z,2.35
2022-10-09T21:39:42.655Z,2.25
2022-10-09T21:44:44.375Z,2.30
2022-10-09T21:49:46.762Z,2.92
2022-10-09T21:54:48.337Z,2.58
2022-10-09T21:59:49.972Z,3.30
2022-10-09T22:04:51.700Z,3.30
2022-10-09T22:09:53.563Z,3.28
2022-10-09T22:14:55.917Z,2.60
2022-10-09T22:19:57.464Z,2.40
2022-10-09T22:25:00.344Z,3.03
2022-10-09T22:30:01.955Z,3.00
2022-10-09T22:35:03.819Z,2.70
2022-10-09T22:40:05.846Z,3.08
2022-10-09T22:45:08.114Z,3.30
2022-10-09T22:50:09.881Z,2.85
2022-10-09T22:55:11.457Z,3.30
2022-10-09T23:00:14.009Z,3.25
2022-10-09T23:05:15.573Z,3.20
2022-10-09T23:10:17.236Z,2.95
2022-10-09T23:15:19.237Z,3.10
2022-10-09T23:20:21.186Z,3.22
2022-10-09T23:25:22.745Z,3.50
2022-10-09T23:30:24.284Z,2.70
2022-10-09T23:35:25.941Z,3.10
2022-10-09T23:40:27.500Z,3.95
2022-10-09T23:45:29.057Z,3.55
2022-10-09T23:50:30.737Z,3.35
2022-10-09T23:55:32.277Z,3.20
